Terminal Aerodrome Forecast
Issued by NWS North Platte, NE

Home | Current Version | Previous Version | Text Only | Print | Product List | Glossary Off
Versions: 1 2 3 4 5 6 7 8 9 10 11 12

051
FTUS43 KLBF 081120
TAFVTN
TAF
KVTN 081120Z 0812/0912 31022G30KT P6SM BKN250
     FM090000 32008KT P6SM OVC070=

USA.gov is the U.S. government's official web portal to all federal, state and local government web resources and services.